sensor_id;sensor_type;location;lat;lon;timestamp;pressure;altitude;pressure_sealevel;temperature;humidity
39223;BME280;24936;46.328;11.026;2023-05-08T00:01:03;94546.56;;;11.37;97.60
39223;BME280;24936;46.328;11.026;2023-05-08T00:03:29;94541.34;;;11.27;97.52
39223;BME280;24936;46.328;11.026;2023-05-08T00:05:55;94542.16;;;11.27;98.27
39223;BME280;24936;46.328;11.026;2023-05-08T00:08:20;94545.63;;;11.28;98.53
39223;BME280;24936;46.328;11.026;2023-05-08T00:10:46;94544.78;;;11.27;98.79
39223;BME280;24936;46.328;11.026;2023-05-08T00:13:12;94540.50;;;11.26;99.14
39223;BME280;24936;46.328;11.026;2023-05-08T00:15:37;94545.91;;;11.35;99.48
39223;BME280;24936;46.328;11.026;2023-05-08T00:18:03;94542.00;;;11.29;99.72
39223;BME280;24936;46.328;11.026;2023-05-08T00:20:28;94545.91;;;11.25;99.92
39223;BME280;24936;46.328;11.026;2023-05-08T00:22:54;94546.88;;;11.24;100.00
39223;BME280;24936;46.328;11.026;2023-05-08T00:25:20;94538.69;;;11.27;100.00
39223;BME280;24936;46.328;11.026;2023-05-08T00:27:45;94544.09;;;11.25;100.00
39223;BME280;24936;46.328;11.026;2023-05-08T00:30:11;94544.69;;;11.19;100.00
39223;BME280;24936;46.328;11.026;2023-05-08T00:32:37;94550.22;;;11.16;100.00
39223;BME280;24936;46.328;11.026;2023-05-08T00:35:02;94550.78;;;11.10;100.00
39223;BME280;24936;46.328;11.026;2023-05-08T00:37:28;94551.75;;;11.09;100.00
39223;BME280;24936;46.328;11.026;2023-05-08T00:39:53;94543.41;;;11.23;100.00
39223;BME280;24936;46.328;11.026;2023-05-08T00:42:18;94547.16;;;11.30;100.00
39223;BME280;24936;46.328;11.026;2023-05-08T00:44:44;94549.09;;;11.28;100.00
39223;BME280;24936;46.328;11.026;2023-05-08T00:47:10;94548.56;;;11.15;100.00
39223;BME280;24936;46.328;11.026;2023-05-08T00:49:35;94548.00;;;11.21;99.86
39223;BME280;24936;46.328;11.026;2023-05-08T00:52:02;94542.84;;;11.29;99.41
39223;BME280;24936;46.328;11.026;2023-05-08T00:54:28;94546.19;;;11.12;99.64
39223;BME280;24936;46.328;11.026;2023-05-08T00:56:54;94545.75;;;11.36;99.91
39223;BME280;24936;46.328;11.026;2023-05-08T00:59:20;94540.44;;;11.46;99.80
39223;BME280;24936;46.328;11.026;2023-05-08T01:01:48;94546.25;;;11.50;100.00
39223;BME280;24936;46.328;11.026;2023-05-08T01:04:14;94547.13;;;11.40;100.00
39223;BME280;24936;46.328;11.026;2023-05-08T01:06:40;94546.81;;;11.43;100.00
39223;BME280;24936;46.328;11.026;2023-05-08T01:09:05;94546.69;;;11.45;100.00
39223;BME280;24936;46.328;11.026;2023-05-08T01:12:12;94544.78;;;11.37;100.00
39223;BME280;24936;46.328;11.026;2023-05-08T01:14:48;94553.81;;;11.35;100.00
39223;BME280;24936;46.328;11.026;2023-05-08T01:17:23;94551.81;;;11.37;100.00
39223;BME280;24936;46.328;11.026;2023-05-08T01:33:52;94553.56;;;11.18;100.00
39223;BME280;24936;46.328;11.026;2023-05-08T01:36:29;94549.63;;;11.22;100.00
39223;BME280;24936;46.328;11.026;2023-05-08T01:41:39;94550.63;;;11.21;100.00
39223;BME280;24936;46.328;11.026;2023-05-08T01:44:16;94550.72;;;11.39;100.00
39223;BME280;24936;46.328;11.026;2023-05-08T01:46:46;94555.16;;;11.39;100.00
39223;BME280;24936;46.328;11.026;2023-05-08T01:52:04;94558.13;;;11.26;100.00
39223;BME280;24936;46.328;11.026;2023-05-08T01:54:49;94557.97;;;11.17;100.00
39223;BME280;24936;46.328;11.026;2023-05-08T01:57:17;94546.91;;;11.14;100.00
39223;BME280;24936;46.328;11.026;2023-05-08T01:59:44;94548.13;;;11.29;100.00
39223;BME280;24936;46.328;11.026;2023-05-08T02:02:12;94557.53;;;11.32;100.00
39223;BME280;24936;46.328;11.026;2023-05-08T02:04:40;94555.75;;;11.13;100.00
39223;BME280;24936;46.328;11.026;2023-05-08T02:07:07;94553.28;;;11.01;100.00
39223;BME280;24936;46.328;11.026;2023-05-08T02:09:33;94555.50;;;11.06;100.00
39223;BME280;24936;46.328;11.026;2023-05-08T02:12:00;94546.63;;;10.97;100.00
39223;BME280;24936;46.328;11.026;2023-05-08T02:14:28;94553.44;;;10.90;100.00
39223;BME280;24936;46.328;11.026;2023-05-08T02:16:56;94549.00;;;11.00;100.00
39223;BME280;24936;46.328;11.026;2023-05-08T02:19:24;94554.25;;;11.10;100.00
39223;BME280;24936;46.328;11.026;2023-05-08T02:21:51;94553.16;;;10.93;100.00
39223;BME280;24936;46.328;11.026;2023-05-08T02:24:19;94546.34;;;10.91;100.00
39223;BME280;24936;46.328;11.026;2023-05-08T02:26:46;94551.09;;;10.87;100.00
39223;BME280;24936;46.328;11.026;2023-05-08T02:29:12;94542.06;;;10.80;100.00
39223;BME280;24936;46.328;11.026;2023-05-08T02:31:39;94534.75;;;10.74;100.00
39223;BME280;24936;46.328;11.026;2023-05-08T02:34:06;94545.81;;;10.77;100.00
39223;BME280;24936;46.328;11.026;2023-05-08T02:36:33;94551.94;;;10.78;100.00
39223;BME280;24936;46.328;11.026;2023-05-08T02:39:01;94550.81;;;10.80;100.00
39223;BME280;24936;46.328;11.026;2023-05-08T02:41:29;94540.28;;;10.80;100.00
39223;BME280;24936;46.328;11.026;2023-05-08T02:43:57;94549.56;;;10.75;100.00
39223;BME280;24936;46.328;11.026;2023-05-08T02:52:13;94547.06;;;10.83;100.00
39223;BME280;24936;46.328;11.026;2023-05-08T02:55:15;94543.19;;;10.87;100.00
39223;BME280;24936;46.328;11.026;2023-05-08T02:57:52;94551.34;;;10.84;100.00
39223;BME280;24936;46.328;11.026;2023-05-08T03:00:29;94553.28;;;10.82;100.00
39223;BME280;24936;46.328;11.026;2023-05-08T03:03:02;94550.38;;;10.85;100.00
39223;BME280;24936;46.328;11.026;2023-05-08T03:05:31;94546.94;;;10.84;100.00
39223;BME280;24936;46.328;11.026;2023-05-08T03:08:14;94545.53;;;10.90;100.00
39223;BME280;24936;46.328;11.026;2023-05-08T03:10:44;94543.59;;;10.92;100.00
39223;BME280;24936;46.328;11.026;2023-05-08T03:13:11;94537.06;;;10.86;100.00
39223;BME280;24936;46.328;11.026;2023-05-08T03:15:44;94541.94;;;10.91;100.00
39223;BME280;24936;46.328;11.026;2023-05-08T03:18:15;94540.56;;;10.87;100.00
39223;BME280;24936;46.328;11.026;2023-05-08T03:20:48;94540.69;;;10.85;100.00
39223;BME280;24936;46.328;11.026;2023-05-08T03:23:17;94540.69;;;10.85;100.00
39223;BME280;24936;46.328;11.026;2023-05-08T03:25:44;94538.88;;;10.86;100.00
39223;BME280;24936;46.328;11.026;2023-05-08T03:28:11;94540.41;;;10.89;100.00
39223;BME280;24936;46.328;11.026;2023-05-08T03:30:39;94532.66;;;10.87;100.00
39223;BME280;24936;46.328;11.026;2023-05-08T03:33:06;94537.66;;;10.90;100.00
39223;BME280;24936;46.328;11.026;2023-05-08T03:35:37;94539.59;;;10.88;100.00
39223;BME280;24936;46.328;11.026;2023-05-08T03:38:04;94534.31;;;10.88;100.00
39223;BME280;24936;46.328;11.026;2023-05-08T03:40:32;94535.28;;;10.97;100.00
39223;BME280;24936;46.328;11.026;2023-05-08T03:43:01;94543.19;;;10.87;100.00
39223;BME280;24936;46.328;11.026;2023-05-08T03:45:30;94546.63;;;10.97;100.00
39223;BME280;24936;46.328;11.026;2023-05-08T03:47:58;94538.03;;;10.95;100.00
39223;BME280;24936;46.328;11.026;2023-05-08T03:50:24;94539.84;;;10.85;100.00
39223;BME280;24936;46.328;11.026;2023-05-08T03:52:50;94546.25;;;10.82;100.00
39223;BME280;24936;46.328;11.026;2023-05-08T03:55:16;94547.06;;;10.73;100.00
39223;BME280;24936;46.328;11.026;2023-05-08T03:57:49;94550.09;;;10.68;100.00
39223;BME280;24936;46.328;11.026;2023-05-08T04:00:34;94551.06;;;10.67;100.00
39223;BME280;24936;46.328;11.026;2023-05-08T04:03:23;94557.31;;;10.66;100.00
39223;BME280;24936;46.328;11.026;2023-05-08T04:06:26;94553.84;;;10.66;100.00
39223;BME280;24936;46.328;11.026;2023-05-08T04:09:22;94559.66;;;10.69;100.00
39223;BME280;24936;46.328;11.026;2023-05-08T04:12:21;94562.44;;;10.58;100.00
39223;BME280;24936;46.328;11.026;2023-05-08T04:14:52;94564.09;;;10.59;100.00
39223;BME280;24936;46.328;11.026;2023-05-08T04:17:27;94565.78;;;10.60;100.00
39223;BME280;24936;46.328;11.026;2023-05-08T04:20:02;94566.59;;;10.61;100.00
39223;BME280;24936;46.328;11.026;2023-05-08T04:22:30;94572.69;;;10.61;100.00
39223;BME280;24936;46.328;11.026;2023-05-08T04:24:59;94570.06;;;10.61;100.00
39223;BME280;24936;46.328;11.026;2023-05-08T04:27:26;94569.09;;;10.92;100.00
39223;BME280;24936;46.328;11.026;2023-05-08T04:29:52;94570.75;;;10.83;100.00
39223;BME280;24936;46.328;11.026;2023-05-08T04:32:19;94572.41;;;11.04;100.00
39223;BME280;24936;46.328;11.026;2023-05-08T04:34:45;94573.94;;;11.16;100.00
39223;BME280;24936;46.328;11.026;2023-05-08T04:37:25;94583.22;;;11.10;100.00
39223;BME280;24936;46.328;11.026;2023-05-08T04:39:51;94578.78;;;11.01;100.00
39223;BME280;24936;46.328;11.026;2023-05-08T04:42:18;94577.97;;;10.91;100.00
39223;BME280;24936;46.328;11.026;2023-05-08T04:44:43;94571.31;;;10.96;100.00
39223;BME280;24936;46.328;11.026;2023-05-08T04:47:08;94575.97;;;11.22;100.00
39223;BME280;24936;46.328;11.026;2023-05-08T04:49:34;94578.66;;;11.02;100.00
39223;BME280;24936;46.328;11.026;2023-05-08T04:51:59;94590.00;;;11.32;100.00
39223;BME280;24936;46.328;11.026;2023-05-08T04:54:26;94590.97;;;11.12;100.00
39223;BME280;24936;46.328;11.026;2023-05-08T04:56:51;94582.09;;;11.03;100.00
39223;BME280;24936;46.328;11.026;2023-05-08T04:59:17;94592.09;;;10.99;100.00
39223;BME280;24936;46.328;11.026;2023-05-08T05:01:45;94597.94;;;10.93;100.00
39223;BME280;24936;46.328;11.026;2023-05-08T05:04:10;94592.94;;;10.90;100.00
39223;BME280;24936;46.328;11.026;2023-05-08T05:06:36;94592.53;;;10.95;100.00
39223;BME280;24936;46.328;11.026;2023-05-08T05:09:01;94592.94;;;11.00;100.00
39223;BME280;24936;46.328;11.026;2023-05-08T05:11:27;94594.56;;;11.01;100.00
39223;BME280;24936;46.328;11.026;2023-05-08T05:13:53;94593.59;;;11.02;100.00
39223;BME280;24936;46.328;11.026;2023-05-08T05:16:18;94594.47;;;11.02;100.00
39223;BME280;24936;46.328;11.026;2023-05-08T05:18:44;94596.81;;;11.06;100.00
39223;BME280;24936;46.328;11.026;2023-05-08T05:21:09;94591.41;;;11.07;100.00
39223;BME280;24936;46.328;11.026;2023-05-08T05:23:35;94595.69;;;11.08;100.00
39223;BME280;24936;46.328;11.026;2023-05-08T05:26:01;94601.94;;;11.07;100.00
39223;BME280;24936;46.328;11.026;2023-05-08T05:28:26;94606.50;;;11.05;100.00
39223;BME280;24936;46.328;11.026;2023-05-08T05:30:52;94603.19;;;11.03;100.00
39223;BME280;24936;46.328;11.026;2023-05-08T05:33:18;94607.75;;;11.01;100.00
39223;BME280;24936;46.328;11.026;2023-05-08T05:35:43;94613.72;;;11.03;100.00
39223;BME280;24936;46.328;11.026;2023-05-08T05:38:09;94611.50;;;10.98;100.00
39223;BME280;24936;46.328;11.026;2023-05-08T05:40:34;94614.97;;;10.99;100.00
39223;BME280;24936;46.328;11.026;2023-05-08T05:43:00;94613.28;;;11.17;100.00
39223;BME280;24936;46.328;11.026;2023-05-08T05:45:25;94615.09;;;11.27;100.00
39223;BME280;24936;46.328;11.026;2023-05-08T05:47:50;94607.75;;;11.30;100.00
39223;BME280;24936;46.328;11.026;2023-05-08T05:50:18;94616.78;;;11.18;100.00
39223;BME280;24936;46.328;11.026;2023-05-08T05:52:45;94619.81;;;11.13;100.00
39223;BME280;24936;46.328;11.026;2023-05-08T05:55:11;94621.88;;;11.10;100.00
39223;BME280;24936;46.328;11.026;2023-05-08T05:57:36;94624.53;;;11.10;100.00
39223;BME280;24936;46.328;11.026;2023-05-08T06:00:03;94618.44;;;11.09;100.00
39223;BME280;24936;46.328;11.026;2023-05-08T06:02:29;94622.59;;;11.12;100.00
39223;BME280;24936;46.328;11.026;2023-05-08T06:04:54;94625.91;;;11.14;100.00
39223;BME280;24936;46.328;11.026;2023-05-08T06:07:20;94632.56;;;11.18;100.00
39223;BME280;24936;46.328;11.026;2023-05-08T06:09:46;94627.03;;;11.21;100.00
39223;BME280;24936;46.328;11.026;2023-05-08T06:12:12;94624.78;;;11.36;100.00
39223;BME280;24936;46.328;11.026;2023-05-08T06:14:37;94631.13;;;11.53;100.00
39223;BME280;24936;46.328;11.026;2023-05-08T06:17:03;94621.00;;;11.58;100.00
39223;BME280;24936;46.328;11.026;2023-05-08T06:19:28;94631.13;;;11.63;100.00
39223;BME280;24936;46.328;11.026;2023-05-08T06:21:54;94631.38;;;11.70;100.00
39223;BME280;24936;46.328;11.026;2023-05-08T06:24:19;94634.44;;;11.75;100.00
39223;BME280;24936;46.328;11.026;2023-05-08T06:26:45;94624.97;;;11.82;100.00
39223;BME280;24936;46.328;11.026;2023-05-08T06:29:13;94627.88;;;11.79;100.00
39223;BME280;24936;46.328;11.026;2023-05-08T06:31:38;94626.09;;;11.80;100.00
39223;BME280;24936;46.328;11.026;2023-05-08T06:34:04;94629.09;;;11.85;100.00
39223;BME280;24936;46.328;11.026;2023-05-08T06:36:30;94628.00;;;11.87;100.00
39223;BME280;24936;46.328;11.026;2023-05-08T06:38:56;94630.22;;;12.02;100.00
39223;BME280;24936;46.328;11.026;2023-05-08T06:41:21;94630.75;;;11.96;100.00
39223;BME280;24936;46.328;11.026;2023-05-08T06:43:47;94632.00;;;12.01;100.00
39223;BME280;24936;46.328;11.026;2023-05-08T06:46:12;94633.91;;;12.09;100.00
39223;BME280;24936;46.328;11.026;2023-05-08T06:48:38;94635.72;;;12.18;100.00
39223;BME280;24936;46.328;11.026;2023-05-08T06:51:03;94636.28;;;12.12;100.00
39223;BME280;24936;46.328;11.026;2023-05-08T06:53:29;94628.66;;;12.37;100.00
39223;BME280;24936;46.328;11.026;2023-05-08T06:55:55;94634.72;;;12.47;100.00
39223;BME280;24936;46.328;11.026;2023-05-08T06:58:22;94631.00;;;12.68;100.00
39223;BME280;24936;46.328;11.026;2023-05-08T07:00:48;94622.84;;;12.79;100.00
39223;BME280;24936;46.328;11.026;2023-05-08T07:03:13;94635.59;;;12.66;99.13
39223;BME280;24936;46.328;11.026;2023-05-08T07:05:39;94631.63;;;12.80;97.95
39223;BME280;24936;46.328;11.026;2023-05-08T07:08:05;94624.59;;;12.89;96.56
39223;BME280;24936;46.328;11.026;2023-05-08T07:10:30;94629.56;;;13.10;96.22
39223;BME280;24936;46.328;11.026;2023-05-08T07:12:56;94624.00;;;13.49;96.56
39223;BME280;24936;46.328;11.026;2023-05-08T07:15:21;94624.63;;;13.69;96.04
39223;BME280;24936;46.328;11.026;2023-05-08T07:17:47;94627.06;;;13.63;94.40
39223;BME280;24936;46.328;11.026;2023-05-08T07:20:13;94626.19;;;13.54;92.89
39223;BME280;24936;46.328;11.026;2023-05-08T07:22:38;94629.22;;;13.94;93.73
39223;BME280;24936;46.328;11.026;2023-05-08T07:25:04;94629.69;;;13.89;93.89
39223;BME280;24936;46.328;11.026;2023-05-08T07:27:30;94628.25;;;13.95;93.83
39223;BME280;24936;46.328;11.026;2023-05-08T07:29:55;94630.31;;;14.09;93.72
39223;BME280;24936;46.328;11.026;2023-05-08T07:32:23;94628.94;;;13.97;92.25
39223;BME280;24936;46.328;11.026;2023-05-08T07:34:49;94626.34;;;14.40;93.62
39223;BME280;24936;46.328;11.026;2023-05-08T07:37:14;94627.69;;;14.52;92.03
39223;BME280;24936;46.328;11.026;2023-05-08T07:39:39;94631.03;;;14.62;91.55
39223;BME280;24936;46.328;11.026;2023-05-08T07:42:05;94627.72;;;14.60;91.45
39223;BME280;24936;46.328;11.026;2023-05-08T07:44:31;94630.84;;;14.56;90.68
39223;BME280;24936;46.328;11.026;2023-05-08T07:46:59;94626.38;;;14.56;90.19
39223;BME280;24936;46.328;11.026;2023-05-08T07:49:25;94620.25;;;14.56;89.46
39223;BME280;24936;46.328;11.026;2023-05-08T07:51:50;94620.75;;;14.51;88.44
39223;BME280;24936;46.328;11.026;2023-05-08T07:54:16;94625.25;;;14.67;89.84
39223;BME280;24936;46.328;11.026;2023-05-08T07:56:42;94625.38;;;14.57;90.67
39223;BME280;24936;46.328;11.026;2023-05-08T07:59:07;94619.00;;;14.68;90.84
39223;BME280;24936;46.328;11.026;2023-05-08T08:01:33;94622.59;;;14.67;90.13
39223;BME280;24936;46.328;11.026;2023-05-08T08:03:58;94627.91;;;14.59;89.62
39223;BME280;24936;46.328;11.026;2023-05-08T08:06:23;94619.28;;;14.65;89.61
39223;BME280;24936;46.328;11.026;2023-05-08T08:08:49;94615.28;;;14.52;88.95
39223;BME280;24936;46.328;11.026;2023-05-08T08:11:14;94619.19;;;14.75;89.73
39223;BME280;24936;46.328;11.026;2023-05-08T08:13:40;94614.84;;;14.65;88.90
39223;BME280;24936;46.328;11.026;2023-05-08T08:16:06;94615.66;;;14.66;88.65
39223;BME280;24936;46.328;11.026;2023-05-08T08:18:33;94615.25;;;14.87;89.59
39223;BME280;24936;46.328;11.026;2023-05-08T08:20:59;94610.91;;;14.78;88.60
39223;BME280;24936;46.328;11.026;2023-05-08T08:23:25;94608.97;;;15.13;88.01
39223;BME280;24936;46.328;11.026;2023-05-08T08:25:50;94607.34;;;15.37;87.48
39223;BME280;24936;46.328;11.026;2023-05-08T08:28:18;94606.19;;;15.31;86.83
39223;BME280;24936;46.328;11.026;2023-05-08T08:30:43;94605.00;;;15.42;87.38
39223;BME280;24936;46.328;11.026;2023-05-08T08:33:09;94597.06;;;15.50;88.01
39223;BME280;24936;46.328;11.026;2023-05-08T08:35:34;94597.88;;;15.34;85.72
39223;BME280;24936;46.328;11.026;2023-05-08T08:38:00;94597.06;;;15.42;87.10
39223;BME280;24936;46.328;11.026;2023-05-08T08:40:25;94596.69;;;15.70;85.27
39223;BME280;24936;46.328;11.026;2023-05-08T08:42:51;94594.34;;;15.83;83.45
39223;BME280;24936;46.328;11.026;2023-05-08T08:45:16;94602.31;;;15.83;85.71
39223;BME280;24936;46.328;11.026;2023-05-08T08:47:43;94597.53;;;15.79;82.76
39223;BME280;24936;46.328;11.026;2023-05-08T08:50:09;94591.16;;;16.13;84.36
39223;BME280;24936;46.328;11.026;2023-05-08T08:52:42;94576.22;;;16.51;82.66
39223;BME280;24936;46.328;11.026;2023-05-08T08:55:15;94581.66;;;16.58;81.27
39223;BME280;24936;46.328;11.026;2023-05-08T08:58:05;94583.81;;;16.23;80.44
39223;BME280;24936;46.328;11.026;2023-05-08T09:00:31;94587.56;;;16.37;82.28
39223;BME280;24936;46.328;11.026;2023-05-08T09:02:58;94583.66;;;16.25;81.85
39223;BME280;24936;46.328;11.026;2023-05-08T09:05:24;94583.88;;;16.15;80.55
39223;BME280;24936;46.328;11.026;2023-05-08T09:07:53;94583.16;;;16.21;80.95
39223;BME280;24936;46.328;11.026;2023-05-08T09:10:19;94578.69;;;16.22;80.44
39223;BME280;24936;46.328;11.026;2023-05-08T09:12:47;94582.53;;;16.11;80.87
39223;BME280;24936;46.328;11.026;2023-05-08T09:15:12;94573.59;;;16.12;80.49
39223;BME280;24936;46.328;11.026;2023-05-08T09:17:38;94580.41;;;15.98;82.22
39223;BME280;24936;46.328;11.026;2023-05-08T09:20:04;94577.50;;;15.59;81.69
39223;BME280;24936;46.328;11.026;2023-05-08T09:22:30;94576.50;;;15.44;83.05
39223;BME280;24936;46.328;11.026;2023-05-08T09:24:59;94579.50;;;15.41;84.38
39223;BME280;24936;46.328;11.026;2023-05-08T09:27:27;94582.97;;;15.41;83.97
39223;BME280;24936;46.328;11.026;2023-05-08T09:30:01;94588.28;;;15.50;83.96
39223;BME280;24936;46.328;11.026;2023-05-08T09:32:27;94587.13;;;15.44;84.06
39223;BME280;24936;46.328;11.026;2023-05-08T09:34:53;94589.47;;;15.39;83.86
39223;BME280;24936;46.328;11.026;2023-05-08T09:37:18;94584.47;;;15.36;83.70
39223;BME280;24936;46.328;11.026;2023-05-08T09:39:44;94585.16;;;15.38;84.12
39223;BME280;24936;46.328;11.026;2023-05-08T09:42:12;94592.25;;;15.37;85.77
39223;BME280;24936;46.328;11.026;2023-05-08T09:44:53;94596.59;;;15.30;84.72
39223;BME280;24936;46.328;11.026;2023-05-08T09:47:23;94591.75;;;15.17;84.61
39223;BME280;24936;46.328;11.026;2023-05-08T09:49:58;94585.47;;;15.18;86.05
39223;BME280;24936;46.328;11.026;2023-05-08T09:52:25;94592.09;;;15.06;84.94
39223;BME280;24936;46.328;11.026;2023-05-08T09:55:05;94587.63;;;15.23;86.56
39223;BME280;24936;46.328;11.026;2023-05-08T09:57:33;94595.91;;;15.28;86.44
39223;BME280;24936;46.328;11.026;2023-05-08T10:02:31;94600.03;;;15.06;86.71
39223;BME280;24936;46.328;11.026;2023-05-08T10:04:57;94600.03;;;15.14;86.12
39223;BME280;24936;46.328;11.026;2023-05-08T10:07:26;94591.28;;;15.13;84.54
39223;BME280;24936;46.328;11.026;2023-05-08T10:10:02;94592.94;;;15.14;83.86
39223;BME280;24936;46.328;11.026;2023-05-08T10:12:29;94597.22;;;15.07;84.91
39223;BME280;24936;46.328;11.026;2023-05-08T10:14:54;94597.72;;;15.11;85.95
39223;BME280;24936;46.328;11.026;2023-05-08T10:17:49;94596.06;;;15.18;86.06
39223;BME280;24936;46.328;11.026;2023-05-08T10:20:18;94595.56;;;15.06;86.12
39223;BME280;24936;46.328;11.026;2023-05-08T10:22:47;94596.41;;;15.07;86.59
39223;BME280;24936;46.328;11.026;2023-05-08T10:25:18;94602.69;;;15.06;86.61
39223;BME280;24936;46.328;11.026;2023-05-08T10:27:54;94589.25;;;14.99;87.72
39223;BME280;24936;46.328;11.026;2023-05-08T10:30:25;94584.13;;;15.06;87.48
39223;BME280;24936;46.328;11.026;2023-05-08T10:32:51;94591.41;;;15.12;87.73
39223;BME280;24936;46.328;11.026;2023-05-08T10:35:21;94588.47;;;15.23;87.58
39223;BME280;24936;46.328;11.026;2023-05-08T10:37:47;94584.66;;;15.18;86.77
39223;BME280;24936;46.328;11.026;2023-05-08T10:40:14;94587.97;;;15.28;86.54
39223;BME280;24936;46.328;11.026;2023-05-08T10:42:45;94587.78;;;15.21;86.71
39223;BME280;24936;46.328;11.026;2023-05-08T10:45:11;94584.16;;;15.22;85.49
39223;BME280;24936;46.328;11.026;2023-05-08T10:47:47;94586.78;;;15.06;86.17
39223;BME280;24936;46.328;11.026;2023-05-08T10:50:32;94587.63;;;15.23;86.85
39223;BME280;24936;46.328;11.026;2023-05-08T10:53:18;94587.13;;;15.11;87.01
39223;BME280;24936;46.328;11.026;2023-05-08T10:55:49;94584.13;;;14.97;87.11
39223;BME280;24936;46.328;11.026;2023-05-08T10:58:29;94584.78;;;14.99;87.80
39223;BME280;24936;46.328;11.026;2023-05-08T11:03:38;94580.16;;;15.18;83.34
39223;BME280;24936;46.328;11.026;2023-05-08T11:06:05;94581.00;;;15.27;84.33
39223;BME280;24936;46.328;11.026;2023-05-08T11:08:31;94574.84;;;15.26;83.20
39223;BME280;24936;46.328;11.026;2023-05-08T11:16:05;94570.38;;;15.19;80.63
39223;BME280;24936;46.328;11.026;2023-05-08T11:18:31;94575.19;;;15.07;79.35
39223;BME280;24936;46.328;11.026;2023-05-08T11:21:04;94570.06;;;15.13;78.68
39223;BME280;24936;46.328;11.026;2023-05-08T11:23:31;94570.53;;;15.25;79.78
39223;BME280;24936;46.328;11.026;2023-05-08T11:26:01;94569.22;;;15.29;81.19
39223;BME280;24936;46.328;11.026;2023-05-08T11:28:37;94573.88;;;15.36;82.16
39223;BME280;24936;46.328;11.026;2023-05-08T11:31:04;94570.88;;;15.47;82.04
39223;BME280;24936;46.328;11.026;2023-05-08T11:33:34;94571.34;;;15.67;82.00
39223;BME280;24936;46.328;11.026;2023-05-08T11:38:40;94576.16;;;15.64;82.28
39223;BME280;24936;46.328;11.026;2023-05-08T11:41:20;94573.16;;;15.75;83.11
39223;BME280;24936;46.328;11.026;2023-05-08T11:44:12;94570.47;;;15.83;82.54
39223;BME280;24936;46.328;11.026;2023-05-08T11:49:12;94560.22;;;15.80;83.13
39223;BME280;24936;46.328;11.026;2023-05-08T11:51:39;94560.38;;;15.79;81.67
39223;BME280;24936;46.328;11.026;2023-05-08T11:54:10;94567.53;;;15.70;81.50
39223;BME280;24936;46.328;11.026;2023-05-08T11:56:37;94569.03;;;15.64;82.09
39223;BME280;24936;46.328;11.026;2023-05-08T11:59:06;94566.69;;;15.61;82.43
39223;BME280;24936;46.328;11.026;2023-05-08T12:01:33;94571.06;;;15.46;82.48
39223;BME280;24936;46.328;11.026;2023-05-08T12:04:01;94571.69;;;15.48;83.70
39223;BME280;24936;46.328;11.026;2023-05-08T12:06:27;94577.00;;;15.56;84.73
39223;BME280;24936;46.328;11.026;2023-05-08T12:08:53;94579.66;;;15.48;84.23
39223;BME280;24936;46.328;11.026;2023-05-08T12:11:22;94574.19;;;15.41;84.55
39223;BME280;24936;46.328;11.026;2023-05-08T12:13:53;94572.38;;;15.33;85.10
39223;BME280;24936;46.328;11.026;2023-05-08T12:16:18;94575.50;;;15.28;85.58
39223;BME280;24936;46.328;11.026;2023-05-08T12:18:48;94573.19;;;15.25;86.61
39223;BME280;24936;46.328;11.026;2023-05-08T12:21:14;94576.34;;;15.21;86.37
39223;BME280;24936;46.328;11.026;2023-05-08T12:23:40;94581.66;;;15.21;86.13
39223;BME280;24936;46.328;11.026;2023-05-08T12:26:06;94575.19;;;15.07;85.80
39223;BME280;24936;46.328;11.026;2023-05-08T12:28:32;94573.53;;;15.06;85.19
39223;BME280;24936;46.328;11.026;2023-05-08T12:30:58;94579.50;;;15.08;86.36
39223;BME280;24936;46.328;11.026;2023-05-08T12:33:24;94568.06;;;15.24;86.87
39223;BME280;24936;46.328;11.026;2023-05-08T12:35:50;94576.03;;;15.40;85.77
39223;BME280;24936;46.328;11.026;2023-05-08T12:38:16;94568.25;;;15.39;84.07
39223;BME280;24936;46.328;11.026;2023-05-08T12:40:42;94577.81;;;15.56;84.83
39223;BME280;24936;46.328;11.026;2023-05-08T12:43:08;94576.69;;;15.59;85.04
39223;BME280;24936;46.328;11.026;2023-05-08T12:45:41;94571.16;;;15.69;83.88
39223;BME280;24936;46.328;11.026;2023-05-08T12:48:12;94579.28;;;15.75;82.32
39223;BME280;24936;46.328;11.026;2023-05-08T12:50:44;94571.31;;;15.75;81.21
39223;BME280;24936;46.328;11.026;2023-05-08T12:53:14;94566.19;;;15.90;81.43
39223;BME280;24936;46.328;11.026;2023-05-08T12:55:52;94573.72;;;16.18;80.71
39223;BME280;24936;46.328;11.026;2023-05-08T12:58:19;94567.81;;;16.00;78.20
39223;BME280;24936;46.328;11.026;2023-05-08T13:00:49;94556.75;;;16.28;79.85
39223;BME280;24936;46.328;11.026;2023-05-08T13:03:24;94569.69;;;16.31;78.08
39223;BME280;24936;46.328;11.026;2023-05-08T13:05:50;94560.28;;;16.51;77.97
39223;BME280;24936;46.328;11.026;2023-05-08T13:08:16;94558.56;;;16.99;76.20
39223;BME280;24936;46.328;11.026;2023-05-08T13:10:42;94557.06;;;17.19;74.88
39223;BME280;24936;46.328;11.026;2023-05-08T13:13:09;94552.75;;;17.18;74.47
39223;BME280;24936;46.328;11.026;2023-05-08T13:15:34;94554.59;;;17.56;75.85
39223;BME280;24936;46.328;11.026;2023-05-08T13:18:00;94551.47;;;17.67;74.01
39223;BME280;24936;46.328;11.026;2023-05-08T13:20:25;94547.63;;;17.55;72.53
39223;BME280;24936;46.328;11.026;2023-05-08T13:22:51;94546.31;;;18.04;73.53
39223;BME280;24936;46.328;11.026;2023-05-08T13:25:16;94544.94;;;18.60;69.73
39223;BME280;24936;46.328;11.026;2023-05-08T13:27:41;94532.72;;;18.65;70.28
39223;BME280;24936;46.328;11.026;2023-05-08T13:30:07;94530.91;;;18.51;70.68
39223;BME280;24936;46.328;11.026;2023-05-08T13:32:33;94535.81;;;18.69;69.54